| time (UTC) | temp F | wind direction | speed MPH | gust MPH | rain 1hr in | rain 24hr in | rain mn in | humidity % | barometer mb |
| 20260905223819 | 77 | 0.0 | 0.0 | 0.00 | 0.00 | 0.00 | 80 | 1010.3 | |
| 20260905222839 | 78 | 0.0 | 0.0 | 0.00 | 0.00 | 0.00 | 80 | 1010.3 | |
| 20260905221820 | 78 | 338 | 1.0 | 2.0 | 0.00 | 0.00 | 0.00 | 78 | 1010.2 |
| 20260905220839 | 79 | 0.0 | 1.0 | 0.00 | 0.00 | 0.00 | 80 | 1010.1 | |
| 20260905215819 | 79 | 338 | 1.0 | 2.0 | 0.00 | 0.00 | 0.00 | 77 | 1010.2 |
| 20260905214819 | 79 | 338 | 2.0 | 3.0 | 0.00 | 0.00 | 0.00 | 75 | 1010.0 |
| 20260905213819 | 79 | 338 | 3.0 | 4.0 | 0.00 | 0.00 | 0.00 | 75 | 1010.1 |
| 20260905212819 | 79 | 338 | 2.0 | 2.0 | 0.00 | 0.00 | 0.00 | 73 | 1009.9 |
| 20260905211819 | 79 | 338 | 5.0 | 8.0 | 0.00 | 0.00 | 0.00 | 73 | 1009.9 |
| 20260905210819 | 80 | 338 | 4.0 | 5.0 | 0.00 | 0.00 | 0.00 | 72 | 1009.7 |
| 20260905205839 | 80 | 338 | 5.0 | 9.0 | 0.00 | 0.00 | 0.00 | 72 | 1009.8 |
| 20260905204819 | 80 | 315 | 3.0 | 4.0 | 0.00 | 0.00 | 0.00 | 73 | 1009.7 |
| 20260905203819 | 81 | 338 | 5.0 | 6.0 | 0.00 | 0.00 | 0.00 | 74 | 1009.8 |
| 20260905202819 | 81 | 315 | 4.0 | 4.0 | 0.00 | 0.00 | 0.00 | 74 | 1009.9 |
| 20260905201819 | 81 | 338 | 5.0 | 6.0 | 0.00 | 0.00 | 0.00 | 72 | 1009.7 |
| 20260905200819 | 82 | 338 | 7.0 | 9.0 | 0.00 | 0.00 | 0.00 | 72 | 1009.6 |
| 20260905195819 | 82 | 315 | 4.0 | 4.0 | 0.00 | 0.00 | 0.00 | 69 | 1009.7 |
| 20260905194819 | 82 | 338 | 4.0 | 6.0 | 0.00 | 0.00 | 0.00 | 70 | 1009.6 |
| 20260905193819 | 83 | 315 | 2.0 | 3.0 | 0.00 | 0.00 | 0.00 | 71 | 1009.5 |
| 20260905192819 | 83 | 338 | 3.0 | 5.0 | 0.00 | 0.00 | 0.00 | 73 | 1009.7 |
| 20260905191839 | 84 | 338 | 4.0 | 7.0 | 0.00 | 0.00 | 0.00 | 72 | 1009.9 |
| 20260905190819 | 84 | 338 | 3.0 | 5.0 | 0.00 | 0.00 | 0.00 | 70 | 1010.2 |
| 20260905185839 | 83 | 0 | 3.0 | 4.0 | 0.00 | 0.00 | 0.00 | 72 | 1010.5 |
| 20260905184819 | 83 | 338 | 2.0 | 4.0 | 0.00 | 0.00 | 0.00 | 72 | 1010.7 |
| 20260905183819 | 84 | 338 | 1.0 | 2.0 | 0.00 | 0.00 | 0.00 | 67 | 1010.9 |
| 20260905182839 | 84 | 0.0 | 1.0 | 0.00 | 0.00 | 0.00 | 67 | 1011.1 | |
| 20260905181818 | 84 | 338 | 2.0 | 3.0 | 0.00 | 0.00 | 0.00 | 68 | 1011.1 |
| 20260905180819 | 84 | 315 | 2.0 | 3.0 | 0.00 | 0.00 | 0.00 | 71 | 1011.2 |
| 20260905175819 | 84 | 338 | 2.0 | 3.0 | 0.00 | 0.00 | 0.00 | 71 | 1011.3 |
| 20260905174819 | 84 | 338 | 5.0 | 6.0 | 0.00 | 0.00 | 0.00 | 71 | 1011.4 |
| 20260905173821 | 83 | 315 | 3.0 | 4.0 | 0.00 | 0.00 | 0.00 | 71 | 1011.3 |
| 20260905172818 | 83 | 338 | 4.0 | 5.0 | 0.00 | 0.00 | 0.00 | 72 | 1011.4 |
| 20260905171819 | 82 | 338 | 4.0 | 8.0 | 0.00 | 0.00 | 0.00 | 75 | 1011.3 |
| 20260905170818 | 82 | 338 | 5.0 | 8.0 | 0.00 | 0.00 | 0.00 | 73 | 1011.2 |
| 20260905165819 | 83 | 338 | 4.0 | 5.0 | 0.00 | 0.00 | 0.00 | 72 | 1011.1 |
| 20260905164819 | 83 | 338 | 3.0 | 5.0 | 0.00 | 0.00 | 0.00 | 71 | 1011.2 |
| 20260905163819 | 83 | 315 | 4.0 | 6.0 | 0.00 | 0.00 | 0.00 | 74 | 1011.3 |
| 20260905162819 | 82 | 338 | 3.0 | 5.0 | 0.00 | 0.00 | 0.00 | 72 | 1011.6 |
| 20260905161838 | 83 | 338 | 4.0 | 9.0 | 0.00 | 0.00 | 0.00 | 72 | 1011.7 |
| 20260905160819 | 83 | 315 | 3.0 | 5.0 | 0.00 | 0.00 | 0.00 | 74 | 1011.6 |
| 20260905155819 | 83 | 315 | 2.0 | 4.0 | 0.00 | 0.00 | 0.00 | 73 | 1011.7 |
| 20260905154819 | 83 | 338 | 5.0 | 6.0 | 0.00 | 0.00 | 0.00 | 75 | 1011.7 |
| 20260905153818 | 84 | 338 | 5.0 | 8.0 | 0.00 | 0.00 | 0.00 | 73 | 1011.6 |
| 20260905152818 | 83 | 338 | 2.0 | 3.0 | 0.00 | 0.00 | 0.00 | 72 | 1011.6 |
| 20260905151819 | 84 | 315 | 3.0 | 5.0 | 0.00 | 0.00 | 0.00 | 73 | 1011.6 |
| 20260905150818 | 84 | 338 | 2.0 | 3.0 | 0.00 | 0.00 | 0.00 | 72 | 1011.8 |
| 20260905145818 | 84 | 338 | 1.0 | 3.0 | 0.00 | 0.00 | 0.00 | 74 | 1011.8 |
| 20260905144858 | 84 | 45 | 2.0 | 4.0 | 0.00 | 0.00 | 0.00 | 73 | 1011.6 |
| 20260905143818 | 84 | 248 | 2.0 | 5.0 | 0.00 | 0.00 | 0.00 | 72 | 1011.4 |
| 20260905142818 | 84 | 338 | 2.0 | 4.0 | 0.00 | 0.00 | 0.00 | 75 | 1011.4 |
| 20260905141820 | 82 | 90 | 3.0 | 8.0 | 0.00 | 0.00 | 0.00 | 77 | 1011.4 |
| 20260905140838 | 82 | 338 | 2.0 | 4.0 | 0.00 | 0.00 | 0.00 | 78 | 1011.3 |
| 20260905135819 | 81 | 338 | 4.0 | 8.0 | 0.00 | 0.00 | 0.00 | 79 | 1011.3 |
| 20260905134818 | 79 | 0 | 2.0 | 3.0 | 0.00 | 0.00 | 0.00 | 81 | 1011.2 |
| 20260905133820 | 79 | 338 | 2.0 | 3.0 | 0.00 | 0.00 | 0.00 | 84 | 1011.3 |
| 20260905132818 | 78 | 315 | 5.0 | 9.0 | 0.00 | 0.00 | 0.00 | 84 | 1011.2 |
| 20260905131838 | 78 | 338 | 1.0 | 2.0 | 0.00 | 0.00 | 0.00 | 86 | 1011.0 |
| 20260905130818 | 77 | 315 | 4.0 | 6.0 | 0.00 | 0.00 | 0.00 | 86 | 1011.0 |
| 20260905125818 | 77 | 315 | 5.0 | 6.0 | 0.00 | 0.00 | 0.00 | 87 | 1010.9 |
| 20260905124820 | 77 | 315 | 3.0 | 4.0 | 0.00 | 0.00 | 0.00 | 88 | 1010.9 |
| 20260905123818 | 76 | 315 | 3.0 | 5.0 | 0.00 | 0.00 | 0.00 | 89 | 1010.9 |
| 20260905122840 | 76 | 315 | 1.0 | 3.0 | 0.00 | 0.00 | 0.00 | 91 | 1010.9 |
| 20260905121818 | 76 | 338 | 2.0 | 3.0 | 0.00 | 0.00 | 0.00 | 92 | 1010.8 |
| 20260905120838 | 76 | 338 | 2.0 | 3.0 | 0.00 | 0.00 | 0.00 | 94 | 1010.7 |
| 20260905115821 | 75 | 315 | 3.0 | 4.0 | 0.00 | 0.00 | 0.00 | 94 | 1010.8 |
| 20260905114820 | 75 | 315 | 2.0 | 3.0 | 0.00 | 0.00 | 0.00 | 95 | 1010.7 |
| 20260905113818 | 75 | 338 | 3.0 | 4.0 | 0.00 | 0.00 | 0.00 | 95 | 1010.5 |
| 20260905112820 | 75 | 315 | 2.0 | 2.0 | 0.00 | 0.00 | 0.00 | 95 | 1010.5 |
| 20260905111820 | 75 | 338 | 3.0 | 4.0 | 0.00 | 0.00 | 0.00 | 95 | 1010.4 |
| 20260905110820 | 75 | 338 | 2.0 | 4.0 | 0.00 | 0.00 | 0.00 | 95 | 1010.4 |
| 20260905105820 | 75 | 338 | 1.0 | 3.0 | 0.00 | 0.00 | 0.00 | 95 | 1010.1 |
| 20260905104820 | 75 | 338 | 3.0 | 5.0 | 0.00 | 0.00 | 0.00 | 94 | 1010.1 |
| 20260905103820 | 75 | 338 | 4.0 | 5.0 | 0.00 | 0.00 | 0.00 | 94 | 1010.1 |
| 20260905102838 | 75 | 315 | 3.0 | 5.0 | 0.00 | 0.00 | 0.00 | 94 | 1009.9 |
| 20260905101820 | 75 | 338 | 3.0 | 4.0 | 0.00 | 0.00 | 0.00 | 93 | 1009.8 |
| 20260905100820 | 75 | 338 | 3.0 | 5.0 | 0.00 | 0.00 | 0.00 | 93 | 1009.6 |
| 20260905095820 | 75 | 338 | 3.0 | 5.0 | 0.00 | 0.00 | 0.00 | 93 | 1009.5 |
| 20260905094819 | 75 | 338 | 4.0 | 6.0 | 0.00 | 0.00 | 0.00 | 93 | 1009.5 |
| 20260905093900 | 75 | 338 | 3.0 | 5.0 | 0.00 | 0.00 | 0.00 | 93 | 1009.4 |
| 20260905092820 | 75 | 338 | 2.0 | 3.0 | 0.00 | 0.00 | 0.00 | 93 | 1009.4 |
| 20260905091840 | 75 | 338 | 2.0 | 3.0 | 0.00 | 0.00 | 0.00 | 93 | 1009.5 |
| 20260905090840 | 75 | 338 | 2.0 | 3.0 | 0.00 | 0.00 | 0.00 | 93 | 1009.6 |
| 20260905085820 | 75 | 0.0 | 0.0 | 0.00 | 0.00 | 0.00 | 92 | 1009.6 | |
| 20260905084820 | 75 | 338 | 1.0 | 2.0 | 0.00 | 0.00 | 0.00 | 92 | 1009.6 |
| 20260905083840 | 75 | 338 | 3.0 | 5.0 | 0.00 | 0.00 | 0.00 | 92 | 1009.4 |
| 20260905082820 | 75 | 338 | 3.0 | 4.0 | 0.00 | 0.00 | 0.00 | 92 | 1009.5 |
| 20260905081822 | 76 | 338 | 4.0 | 5.0 | 0.00 | 0.00 | 0.00 | 92 | 1009.5 |
| 20260905080820 | 76 | 338 | 3.0 | 4.0 | 0.00 | 0.00 | 0.00 | 92 | 1009.7 |
| 20260905075819 | 76 | 338 | 3.0 | 6.0 | 0.00 | 0.01 | 0.00 | 92 | 1009.8 |
| 20260905074839 | 76 | 338 | 4.0 | 5.0 | 0.00 | 0.01 | 0.00 | 92 | 1009.7 |
| 20260905073820 | 76 | 338 | 4.0 | 5.0 | 0.00 | 0.01 | 0.00 | 92 | 1009.8 |
| 20260905072819 | 76 | 338 | 4.0 | 6.0 | 0.00 | 0.01 | 0.00 | 92 | 1009.9 |
| 20260905071819 | 77 | 338 | 4.0 | 5.0 | 0.00 | 0.01 | 0.00 | 92 | 1010.0 |
| 20260905070839 | 77 | 315 | 4.0 | 6.0 | 0.00 | 0.01 | 0.00 | 92 | 1010.0 |
| 20260905065839 | 76 | 293 | 3.0 | 5.0 | 0.00 | 0.03 | 0.00 | 93 | 1010.0 |
| 20260905064820 | 76 | 315 | 5.0 | 9.0 | 0.00 | 0.03 | 0.00 | 93 | 1010.0 |
| 20260905063820 | 76 | 315 | 4.0 | 5.0 | 0.00 | 0.03 | 0.00 | 93 | 1010.1 |
| 20260905062839 | 76 | 315 | 3.0 | 4.0 | 0.00 | 0.03 | 0.00 | 93 | 1010.1 |
| 20260905061819 | 76 | 315 | 3.0 | 5.0 | 0.00 | 0.03 | 0.00 | 93 | 1010.2 |
| 20260905060819 | 76 | 0.0 | 0.0 | 0.00 | 0.03 | 0.00 | 93 | 1010.2 | |
| 20260905055819 | 76 | 0.0 | 0.0 | 0.00 | 0.24 | 0.00 | 93 | 1010.2 | |
| 20260905054819 | 76 | 0.0 | 0.0 | 0.00 | 0.24 | 0.00 | 93 | 1010.3 | |
| 20260905053819 | 76 | 0.0 | 0.0 | 0.00 | 0.24 | 0.00 | 94 | 1010.5 | |
| 20260905052819 | 76 | 0.0 | 0.0 | 0.00 | 0.24 | 0.00 | 94 | 1010.7 | |
| 20260905051840 | 76 | 0.0 | 0.0 | 0.00 | 0.24 | 0.00 | 93 | 1010.8 | |
| 20260905050819 | 76 | 0.0 | 0.0 | 0.00 | 0.24 | 0.00 | 93 | 1010.9 | |
| 20260905045818 | 77 | 0.0 | 0.0 | 0.00 | 0.49 | 0.00 | 92 | 1010.9 | |
| 20260905044819 | 77 | 0.0 | 0.0 | 0.00 | 0.49 | 0.00 | 92 | 1011.1 | |
| 20260905043819 | 77 | 0.0 | 0.0 | 0.00 | 0.49 | 0.00 | 92 | 1011.1 | |
| 20260905042839 | 77 | 0.0 | 0.0 | 0.00 | 0.49 | 0.00 | 93 | 1011.0 | |
| 20260905041839 | 77 | 0.0 | 0.0 | 0.00 | 0.49 | 0.00 | 93 | 1011.2 | |
| 20260905040819 | 77 | 0.0 | 0.0 | 0.00 | 0.49 | 0.00 | 92 | 1011.3 | |
| 20260905035818 | 77 | 0.0 | 0.0 | 0.00 | 0.49 | 0.49 | 92 | 1011.3 | |
| 20260905034847 | 77 | 0.0 | 0.0 | 0.00 | 0.49 | 0.49 | 92 | 1011.3 | |
| 20260905033818 | 77 | 0.0 | 0.0 | 0.00 | 0.49 | 0.49 | 92 | 1011.5 | |
| 20260905032818 | 77 | 0.0 | 0.0 | 0.00 | 0.49 | 0.49 | 92 | 1011.3 | |
| 20260905031840 | 77 | 0.0 | 0.0 | 0.00 | 0.49 | 0.49 | 92 | 1011.5 | |
| 20260905030840 | 77 | 0.0 | 0.0 | 0.00 | 0.49 | 0.49 | 93 | 1011.6 | |
| 20260905025818 | 78 | 0.0 | 0.0 | 0.00 | 0.49 | 0.49 | 93 | 1011.5 | |
| 20260905024821 | 78 | 0.0 | 0.0 | 0.00 | 0.49 | 0.49 | 93 | 1011.6 | |
| 20260905023818 | 78 | 0.0 | 0.0 | 0.00 | 0.49 | 0.49 | 94 | 1011.7 | |
| 20260905022820 | 78 | 0.0 | 0.0 | 0.00 | 0.49 | 0.49 | 95 | 1011.8 | |
| 20260905021820 | 79 | 0.0 | 0.0 | 0.00 | 0.49 | 0.49 | 95 | 1011.6 | |
| 20260905020820 | 79 | 0.0 | 0.0 | 0.00 | 0.49 | 0.49 | 95 | 1011.7 | |
| 20260905015820 | 79 | 0.0 | 0.0 | 0.00 | 0.49 | 0.49 | 96 | 1011.6 | |
| 20260905014840 | 78 | 0.0 | 0.0 | 0.00 | 0.49 | 0.49 | 96 | 1011.5 | |
| 20260905013838 | 78 | 0.0 | 0.0 | 0.00 | 0.49 | 0.49 | 96 | 1011.4 | |
| 20260905012818 | 78 | 0.0 | 0.0 | 0.00 | 0.49 | 0.49 | 95 | 1011.2 | |
| 20260905011820 | 78 | 0.0 | 0.0 | 0.00 | 0.49 | 0.49 | 96 | 1011.2 | |
| 20260905010820 | 78 | 0.0 | 0.0 | 0.00 | 0.49 | 0.49 | 96 | 1011.3 | |
| 20260905005820 | 78 | 0.0 | 0.0 | 0.00 | 0.49 | 0.49 | 96 | 1011.3 | |
| 20260905004838 | 78 | 0.0 | 0.0 | 0.00 | 0.49 | 0.49 | 95 | 1011.1 | |
| 20260905003820 | 78 | 0.0 | 0.0 | 0.00 | 0.49 | 0.49 | 95 | 1011.1 | |
| 20260905002840 | 78 | 0.0 | 0.0 | 0.00 | 0.49 | 0.49 | 95 | 1011.2 | |
| 20260905001819 | 78 | 0.0 | 0.0 | 0.00 | 0.49 | 0.49 | 95 | 1011.1 | |
| 20260905000820 | 78 | 0.0 | 0.0 | 0.00 | 0.49 | 0.49 | 94 | 1011.1 | |
| 20260904235819 | 79 | 0.0 | 0.0 | 0.00 | 0.49 | 0.49 | 94 | 1010.9 | |
| 20260904234840 | 79 | 0.0 | 0.0 | 0.00 | 0.49 | 0.49 | 94 | 1010.6 | |
| 20260904233820 | 79 | 0.0 | 0.0 | 0.00 | 0.49 | 0.49 | 93 | 1010.5 | |
| 20260904232820 | 80 | 0.0 | 0.0 | 0.00 | 0.49 | 0.49 | 93 | 1010.5 | |
| 20260904231819 | 80 | 0.0 | 0.0 | 0.00 | 0.49 | 0.49 | 93 | 1010.7 | |
| 20260904230900 | 80 | 0.0 | 0.0 | 0.00 | 0.49 | 0.49 | 92 | 1010.6 | |
| 20260904225820 | 80 | 0.0 | 0.0 | 0.00 | 0.49 | 0.49 | 92 | 1010.7 | |
| 20260904224820 | 80 | 0.0 | 0.0 | 0.00 | 0.49 | 0.49 | 91 | 1010.8 |